createdAt,value
2022-11-27T00:02:12.292Z,101689.05
2022-11-27T00:04:40.971Z,101685.83
2022-11-27T00:07:09.402Z,101687.74
2022-11-27T00:09:38.201Z,101688.27
2022-11-27T00:12:07.448Z,101686.40
2022-11-27T00:14:35.786Z,101688.10
2022-11-27T00:17:04.411Z,101689.75
2022-11-27T00:19:32.962Z,101689.50
2022-11-27T00:22:01.417Z,101689.98
2022-11-27T00:24:29.891Z,101688.42
2022-11-27T00:26:58.375Z,101689.98
2022-11-27T00:29:30.696Z,101684.75
2022-11-27T00:31:59.168Z,101684.52
2022-11-27T00:34:27.673Z,101686.78
2022-11-27T00:36:56.012Z,101683.45
2022-11-27T00:39:24.376Z,101682.00
2022-11-27T00:41:52.799Z,101676.85
2022-11-27T00:44:21.218Z,101681.02
2022-11-27T00:47:19.850Z,101683.66
2022-11-27T00:49:48.350Z,101682.02
2022-11-27T00:52:16.767Z,101681.41
2022-11-27T00:54:45.117Z,101683.20
2022-11-27T00:57:13.485Z,101683.56
2022-11-27T00:59:41.879Z,101687.55
2022-11-27T01:02:10.232Z,101688.09
2022-11-27T01:04:38.848Z,101679.33
2022-11-27T01:07:07.666Z,101680.48
2022-11-27T01:09:36.037Z,101683.75
2022-11-27T01:12:04.859Z,101681.23
2022-11-27T01:14:33.337Z,101675.24
2022-11-27T01:17:01.897Z,101672.70
2022-11-27T01:19:30.234Z,101674.11
2022-11-27T01:21:58.728Z,101673.09
2022-11-27T01:24:27.370Z,101674.14
2022-11-27T01:26:55.815Z,101676.90
2022-11-27T01:29:24.288Z,101671.22
2022-11-27T01:31:52.647Z,101679.98
2022-11-27T01:34:21.061Z,101685.31
2022-11-27T01:36:49.437Z,101683.23
2022-11-27T01:39:20.993Z,101677.02
2022-11-27T01:41:49.929Z,101679.85
2022-11-27T01:44:24.131Z,101687.08
2022-11-27T01:47:00.800Z,101692.73
2022-11-27T01:49:33.299Z,101684.33
2022-11-27T01:52:24.348Z,101681.79
2022-11-27T01:55:04.726Z,101687.66
2022-11-27T01:57:44.701Z,101688.70
2022-11-27T02:00:15.148Z,101691.96
2022-11-27T02:02:45.284Z,101697.13
2022-11-27T02:05:21.298Z,101693.36
2022-11-27T02:07:51.332Z,101693.53
2022-11-27T02:10:20.377Z,101693.19
2022-11-27T02:13:27.579Z,101696.28
2022-11-27T02:15:58.712Z,101692.87
2022-11-27T02:18:33.063Z,101690.46
2022-11-27T02:21:01.347Z,101690.64
2022-11-27T02:24:02.436Z,101692.70
2022-11-27T02:26:44.880Z,101696.83
2022-11-27T02:29:15.321Z,101702.66
2022-11-27T02:32:08.564Z,101699.77
2022-11-27T02:34:49.458Z,101700.13
2022-11-27T02:37:28.116Z,101694.13
2022-11-27T02:40:20.604Z,101691.58
2022-11-27T02:43:00.585Z,101689.14
2022-11-27T02:45:44.127Z,101688.03
2022-11-27T02:48:18.543Z,101687.98
2022-11-27T02:50:49.404Z,101692.97
2022-11-27T02:53:31.737Z,101688.50
2022-11-27T02:56:03.919Z,101693.13
2022-11-27T02:58:33.277Z,101687.79
2022-11-27T03:01:04.472Z,101689.88
2022-11-27T03:03:46.374Z,101683.00
2022-11-27T03:06:28.012Z,101680.37
2022-11-27T03:09:19.227Z,101686.67
2022-11-27T03:11:47.938Z,101691.31
2022-11-27T03:14:17.290Z,101687.55
2022-11-27T03:16:45.635Z,101683.52
2022-11-27T03:19:23.256Z,101681.93
2022-11-27T03:22:00.486Z,101682.75
2022-11-27T03:24:30.748Z,101685.64
2022-11-27T03:27:00.348Z,101685.46
2022-11-27T03:29:46.246Z,101679.10
2022-11-27T03:32:15.186Z,101674.94
2022-11-27T03:34:44.057Z,101673.02
2022-11-27T03:37:12.500Z,101671.59
2022-11-27T03:39:41.367Z,101669.67
2022-11-27T03:42:53.194Z,101675.98
2022-11-27T03:45:35.560Z,101671.51
2022-11-27T03:48:33.038Z,101674.62
2022-11-27T03:51:18.391Z,101675.36
2022-11-27T03:54:04.762Z,101669.73
2022-11-27T03:56:54.516Z,101665.27
2022-11-27T03:59:43.525Z,101662.23
2022-11-27T04:02:18.373Z,101659.80
2022-11-27T04:04:46.811Z,101661.52
2022-11-27T04:07:17.995Z,101657.64
2022-11-27T04:09:46.362Z,101651.94
2022-11-27T04:12:14.810Z,101645.36
2022-11-27T04:14:43.144Z,101643.23
2022-11-27T04:17:11.504Z,101646.27
2022-11-27T04:19:39.862Z,101648.67
2022-11-27T04:22:08.248Z,101654.04
2022-11-27T04:24:36.592Z,101655.11
2022-11-27T04:27:04.931Z,101653.60
2022-11-27T04:29:33.398Z,101658.91
2022-11-27T04:32:01.698Z,101661.46
2022-11-27T04:34:30.128Z,101665.40
2022-11-27T04:36:58.639Z,101662.79
2022-11-27T04:39:27.744Z,101658.62
2022-11-27T04:41:56.040Z,101652.56
2022-11-27T04:44:24.360Z,101646.52
2022-11-27T04:46:52.853Z,101644.95
2022-11-27T04:49:21.319Z,101639.11
2022-11-27T04:51:49.727Z,101641.66
2022-11-27T04:54:18.214Z,101640.44
2022-11-27T04:56:46.599Z,101642.84
2022-11-27T04:59:14.995Z,101638.33
2022-11-27T05:01:43.381Z,101634.34
2022-11-27T05:04:11.700Z,101631.23
2022-11-27T05:06:40.129Z,101629.67
2022-11-27T05:09:08.560Z,101631.55
2022-11-27T05:11:36.970Z,101623.27
2022-11-27T05:14:18.515Z,101622.23
2022-11-27T05:16:51.705Z,101624.29
2022-11-27T05:19:22.537Z,101619.14
2022-11-27T05:21:51.854Z,101622.89
2022-11-27T05:24:22.261Z,101624.28
2022-11-27T05:26:50.694Z,101626.52
2022-11-27T05:29:20.440Z,101629.59
2022-11-27T05:31:48.819Z,101638.36
2022-11-27T05:34:17.185Z,101636.52
2022-11-27T05:36:45.804Z,101631.86
2022-11-27T05:39:14.882Z,101632.52
2022-11-27T05:41:44.051Z,101639.00
2022-11-27T05:44:14.772Z,101641.39
2022-11-27T05:46:57.500Z,101642.44
2022-11-27T05:49:25.902Z,101644.52
2022-11-27T05:51:54.354Z,101648.86
2022-11-27T05:54:22.679Z,101642.58
2022-11-27T05:56:51.049Z,101645.59
2022-11-27T05:59:19.566Z,101647.33
2022-11-27T06:01:49.690Z,101654.37
2022-11-27T06:04:18.737Z,101654.01
2022-11-27T06:06:47.758Z,101650.20
2022-11-27T06:09:29.763Z,101651.89
2022-11-27T06:11:58.459Z,101647.92
2022-11-27T06:14:26.954Z,101645.85
2022-11-27T06:16:55.389Z,101643.27
2022-11-27T06:19:24.249Z,101649.43
2022-11-27T06:21:52.628Z,101651.64
2022-11-27T06:24:21.483Z,101652.66
2022-11-27T06:26:50.031Z,101652.66
2022-11-27T06:29:18.425Z,101653.17
2022-11-27T06:31:46.950Z,101656.10
2022-11-27T06:34:15.389Z,101657.51
2022-11-27T06:36:43.722Z,101659.62
2022-11-27T06:39:15.143Z,101661.55
2022-11-27T06:41:43.863Z,101661.05
2022-11-27T06:44:12.136Z,101661.98
2022-11-27T06:50:45.070Z,101656.80
2022-11-27T06:53:13.551Z,101653.34
2022-11-27T06:55:41.830Z,101649.36
2022-11-27T06:58:10.841Z,101651.89
2022-11-27T07:00:39.219Z,101659.25
2022-11-27T07:03:07.661Z,101664.40
2022-11-27T07:05:37.313Z,101670.42
2022-11-27T07:08:05.958Z,101673.02
2022-11-27T07:10:36.259Z,101673.95
2022-11-27T07:13:04.704Z,101673.45
2022-11-27T07:15:33.483Z,101671.77
2022-11-27T07:18:02.645Z,101674.20
2022-11-27T07:20:30.990Z,101677.11
2022-11-27T07:22:59.364Z,101674.71
2022-11-27T07:25:27.822Z,101674.20
2022-11-27T07:27:56.586Z,101669.55
2022-11-27T07:30:24.987Z,101669.70
2022-11-27T07:32:53.376Z,101670.94
2022-11-27T07:35:21.929Z,101674.55
2022-11-27T07:37:50.263Z,101666.48
2022-11-27T07:40:18.782Z,101664.26
2022-11-27T07:42:47.190Z,101662.88
2022-11-27T07:45:40.359Z,101660.34
2022-11-27T07:48:08.892Z,101657.77
2022-11-27T07:50:37.409Z,101659.66
2022-11-27T07:53:05.899Z,101664.65
2022-11-27T07:55:34.467Z,101658.32
2022-11-27T07:58:02.767Z,101652.83
2022-11-27T08:00:31.166Z,101654.91
2022-11-27T08:03:00.597Z,101654.26
2022-11-27T08:05:29.520Z,101654.80
2022-11-27T08:08:01.579Z,101647.61
2022-11-27T08:10:28.823Z,101648.64
2022-11-27T08:12:59.450Z,101648.85
2022-11-27T08:15:27.829Z,101651.64
2022-11-27T08:17:56.199Z,101653.73
2022-11-27T08:20:25.092Z,101653.75
2022-11-27T08:22:56.948Z,101653.96
2022-11-27T08:25:34.173Z,101658.81
2022-11-27T08:28:06.373Z,101656.95
2022-11-27T08:30:34.716Z,101660.09
2022-11-27T08:33:03.075Z,101664.41
2022-11-27T08:35:31.562Z,101660.64
2022-11-27T08:38:00.619Z,101661.02
2022-11-27T08:40:29.041Z,101661.85
2022-11-27T08:42:59.057Z,101661.68
2022-11-27T08:45:26.435Z,101663.59
2022-11-27T08:47:53.711Z,101666.38
2022-11-27T08:50:21.010Z,101667.76
2022-11-27T08:52:48.127Z,101667.06
2022-11-27T08:55:15.326Z,101667.76
2022-11-27T08:57:44.236Z,101672.43
2022-11-27T09:00:13.644Z,101674.16
2022-11-27T09:02:42.047Z,101673.14
2022-11-27T09:05:10.782Z,101675.92
2022-11-27T09:07:41.216Z,101676.31
2022-11-27T09:10:10.590Z,101679.25
2022-11-27T09:12:43.225Z,101677.73
2022-11-27T09:15:13.946Z,101676.55
2022-11-27T09:17:42.595Z,101673.83
2022-11-27T09:20:11.749Z,101674.34
2022-11-27T09:22:40.634Z,101669.71
2022-11-27T09:25:10.049Z,101669.58
2022-11-27T09:27:38.753Z,101667.73
2022-11-27T09:30:08.994Z,101667.73
2022-11-27T09:32:37.469Z,101668.59
2022-11-27T09:35:06.139Z,101666.01
2022-11-27T09:37:34.757Z,101666.20
2022-11-27T09:40:03.125Z,101664.83
2022-11-27T09:42:57.577Z,101662.26
2022-11-27T09:46:29.212Z,101659.18
2022-11-27T09:49:02.635Z,101657.47
2022-11-27T09:51:48.349Z,101659.02
2022-11-27T09:54:26.207Z,101658.86
2022-11-27T09:56:56.743Z,101660.06
2022-11-27T09:59:36.804Z,101657.48
2022-11-27T10:02:18.596Z,101651.12
2022-11-27T10:05:12.102Z,101649.93
2022-11-27T10:08:06.952Z,101646.66
2022-11-27T10:10:55.384Z,101648.38
2022-11-27T10:14:24.286Z,101648.55
2022-11-27T10:17:06.543Z,101645.98
2022-11-27T10:19:47.136Z,101636.49
2022-11-27T10:22:36.936Z,101639.93
2022-11-27T10:25:20.332Z,101632.20
2022-11-27T10:28:04.393Z,101623.40
2022-11-27T10:30:37.875Z,101620.81
2022-11-27T10:33:18.134Z,101618.57
2022-11-27T10:35:49.468Z,101614.63
2022-11-27T10:38:27.600Z,101610.30
2022-11-27T10:41:09.849Z,101614.79
2022-11-27T10:43:40.653Z,101606.00
2022-11-27T10:46:30.656Z,101607.38
2022-11-27T10:48:59.188Z,101608.77
2022-11-27T10:51:39.583Z,101610.14
2022-11-27T10:54:20.147Z,101605.67
2022-11-27T10:57:07.060Z,101604.11
2022-11-27T11:00:11.173Z,101599.30
2022-11-27T11:02:40.150Z,101599.63
2022-11-27T11:05:34.685Z,101599.29
2022-11-27T11:08:22.588Z,101599.46
2022-11-27T11:10:55.114Z,101598.41
2022-11-27T11:13:28.785Z,101597.57
2022-11-27T11:16:19.419Z,101598.41
2022-11-27T11:18:55.292Z,101599.80
2022-11-27T11:21:31.069Z,101600.48
2022-11-27T11:24:07.009Z,101593.40
2022-11-27T11:26:40.738Z,101588.56
2022-11-27T11:29:24.472Z,101586.65
2022-11-27T11:31:57.302Z,101587.65
2022-11-27T11:34:29.095Z,101589.01
2022-11-27T11:37:15.409Z,101588.28
2022-11-27T11:39:49.353Z,101591.34
2022-11-27T11:42:25.973Z,101590.10
2022-11-27T11:45:03.013Z,101589.92
2022-11-27T11:47:33.074Z,101587.14
2022-11-27T11:50:01.891Z,101583.54
2022-11-27T11:52:49.139Z,101577.83
2022-11-27T11:55:27.232Z,101572.86
2022-11-27T11:58:21.313Z,101570.80
2022-11-27T12:04:14.819Z,101568.04
2022-11-27T12:07:02.110Z,101569.60
2022-11-27T12:10:02.375Z,101569.95
2022-11-27T12:13:09.216Z,101565.29
2022-11-27T12:16:22.964Z,101567.73
2022-11-27T12:19:32.566Z,101565.16
2022-11-27T12:22:37.576Z,101565.85
2022-11-27T12:25:24.706Z,101562.72
2022-11-27T12:28:11.971Z,101562.02
2022-11-27T12:31:03.326Z,101562.89
2022-11-27T12:33:55.651Z,101559.96
2022-11-27T12:36:43.756Z,101558.77
2022-11-27T12:39:27.478Z,101561.71
2022-11-27T12:42:21.961Z,101558.09
2022-11-27T12:45:27.455Z,101553.60
2022-11-27T12:48:02.095Z,101552.05
2022-11-27T12:50:55.345Z,101553.42
2022-11-27T12:53:50.491Z,101551.17
2022-11-27T12:56:39.868Z,101552.36
2022-11-27T12:59:31.873Z,101555.81
2022-11-27T13:02:27.947Z,101551.88
2022-11-27T13:05:21.001Z,101551.88
2022-11-27T13:07:49.421Z,101550.34
2022-11-27T13:10:39.891Z,101549.29
2022-11-27T13:13:16.109Z,101546.18
2022-11-27T13:15:55.454Z,101547.91
2022-11-27T13:18:49.978Z,101544.50
2022-11-27T13:21:20.791Z,101541.23
2022-11-27T13:23:52.168Z,101539.53
2022-11-27T13:26:41.388Z,101536.95
2022-11-27T13:29:25.918Z,101538.17
2022-11-27T13:31:59.069Z,101538.52
2022-11-27T13:34:30.886Z,101536.44
2022-11-27T13:37:10.738Z,101533.51
2022-11-27T13:39:42.433Z,101532.48
2022-11-27T13:42:22.455Z,101532.83
2022-11-27T13:44:58.755Z,101535.77
2022-11-27T13:47:31.265Z,101530.80
2022-11-27T13:50:10.600Z,101533.89
2022-11-27T13:53:01.048Z,101531.30
2022-11-27T13:55:52.436Z,101525.25
2022-11-27T13:58:33.337Z,101525.41
2022-11-27T14:01:20.128Z,101522.83
2022-11-27T14:03:51.039Z,101515.08
2022-11-27T14:06:32.450Z,101511.84
2022-11-27T14:09:06.729Z,101510.66
2022-11-27T14:11:40.529Z,101509.48
2022-11-27T14:14:23.747Z,101506.05
2022-11-27T14:17:09.080Z,101505.72
2022-11-27T14:19:45.722Z,101505.21
2022-11-27T14:22:17.509Z,101499.36
2022-11-27T14:24:56.248Z,101498.17
2022-11-27T14:27:32.650Z,101498.02
2022-11-27T14:30:23.947Z,101490.27
2022-11-27T14:32:52.612Z,101491.16
2022-11-27T14:35:24.321Z,101489.62
2022-11-27T14:37:53.819Z,101488.95
2022-11-27T14:40:29.142Z,101482.58
2022-11-27T14:43:09.272Z,101480.67
2022-11-27T14:45:43.002Z,101480.17
2022-11-27T14:48:26.088Z,101479.15
2022-11-27T14:50:56.659Z,101472.44
2022-11-27T14:53:28.517Z,101468.66
2022-11-27T14:56:00.291Z,101467.29
2022-11-27T14:58:31.988Z,101466.77
2022-11-27T15:01:07.641Z,101464.03
2022-11-27T15:03:36.484Z,101463.69
2022-11-27T15:06:09.124Z,101461.81
2022-11-27T15:08:38.741Z,101461.13
2022-11-27T15:11:07.154Z,101460.27
2022-11-27T15:13:38.965Z,101457.52
2022-11-27T15:16:16.111Z,101458.55
2022-11-27T15:18:55.134Z,101459.58
2022-11-27T15:21:26.680Z,101459.05
2022-11-27T15:23:57.480Z,101453.73
2022-11-27T15:26:40.938Z,101453.05
2022-11-27T15:29:37.059Z,101448.91
2022-11-27T15:32:25.023Z,101449.77
2022-11-27T15:34:56.876Z,101447.70
2022-11-27T15:37:34.942Z,101449.23
2022-11-27T15:40:04.294Z,101456.29
2022-11-27T15:42:33.075Z,101462.46
2022-11-27T15:45:02.023Z,101459.73
2022-11-27T15:48:08.449Z,101458.34
2022-11-27T15:50:37.641Z,101459.52
2022-11-27T15:53:07.587Z,101461.92
2022-11-27T15:55:37.286Z,101462.77
2022-11-27T15:58:06.053Z,101460.55
2022-11-27T16:00:35.807Z,101460.20
2022-11-27T16:03:05.147Z,101459.67
2022-11-27T16:05:34.604Z,101460.02
2022-11-27T16:08:06.335Z,101454.34
2022-11-27T16:10:41.877Z,101447.45
2022-11-27T16:13:11.502Z,101451.05
2022-11-27T16:15:43.633Z,101453.95
2022-11-27T16:18:13.330Z,101458.59
2022-11-27T16:20:42.936Z,101459.10
2022-11-27T16:23:13.502Z,101461.33
2022-11-27T16:25:42.503Z,101458.73
2022-11-27T16:28:11.975Z,101454.29
2022-11-27T16:30:41.000Z,101450.66
2022-11-27T16:33:10.578Z,101438.33
2022-11-27T16:35:40.042Z,101429.55
2022-11-27T16:38:09.198Z,101425.27
2022-11-27T16:40:37.972Z,101422.50
2022-11-27T16:43:07.804Z,101416.66
2022-11-27T16:45:37.897Z,101411.16
2022-11-27T16:48:07.651Z,101415.95
2022-11-27T16:50:39.307Z,101414.75
2022-11-27T16:53:08.149Z,101407.70
2022-11-27T16:55:36.860Z,101402.02
2022-11-27T16:58:05.365Z,101405.44
2022-11-27T17:00:34.356Z,101406.79
2022-11-27T17:03:04.780Z,101401.46
2022-11-27T17:05:38.276Z,101400.09
2022-11-27T17:08:07.439Z,101401.96
2022-11-27T17:10:36.517Z,101404.54
2022-11-27T17:13:05.263Z,101405.05
2022-11-27T17:15:40.592Z,101413.10
2022-11-27T17:18:10.451Z,101411.06
2022-11-27T17:20:39.511Z,101403.69
2022-11-27T17:23:08.962Z,101400.09
2022-11-27T17:25:39.652Z,101397.01
2022-11-27T17:28:09.078Z,101396.16
2022-11-27T17:30:41.061Z,101394.80
2022-11-27T17:33:10.218Z,101389.98
2022-11-27T17:35:39.424Z,101383.98
2022-11-27T17:38:08.723Z,101384.70
2022-11-27T17:40:37.784Z,101385.90
2022-11-27T17:43:07.272Z,101381.95
2022-11-27T17:45:43.153Z,101379.54
2022-11-27T17:48:12.650Z,101375.41
2022-11-27T17:50:42.348Z,101373.86
2022-11-27T17:53:11.976Z,101367.67
2022-11-27T17:55:41.176Z,101365.27
2022-11-27T17:58:10.514Z,101365.08
2022-11-27T18:00:42.158Z,101364.73
2022-11-27T18:03:12.164Z,101365.58
2022-11-27T18:05:40.969Z,101362.14
2022-11-27T18:08:10.382Z,101363.48
2022-11-27T18:10:39.474Z,101358.34
2022-11-27T18:13:08.878Z,101360.54
2022-11-27T18:15:38.489Z,101357.45
2022-11-27T18:18:09.001Z,101353.14
2022-11-27T18:20:38.230Z,101352.64
2022-11-27T18:23:07.234Z,101350.23
2022-11-27T18:25:44.781Z,101347.83
2022-11-27T18:28:18.296Z,101349.35
2022-11-27T18:30:48.857Z,101351.08
2022-11-27T18:33:19.037Z,101351.59
2022-11-27T18:35:48.936Z,101349.70
2022-11-27T18:38:19.408Z,101348.68
2022-11-27T18:40:49.200Z,101350.06
2022-11-27T18:43:22.405Z,101352.11
2022-11-27T18:45:53.136Z,101351.61
2022-11-27T18:48:22.957Z,101352.83
2022-11-27T18:50:54.036Z,101349.75
2022-11-27T18:53:24.541Z,101351.64
2022-11-27T18:55:54.165Z,101347.69
2022-11-27T18:58:24.016Z,101348.02
2022-11-27T19:00:58.169Z,101348.86
2022-11-27T19:03:26.627Z,101348.86
2022-11-27T19:05:55.575Z,101345.43
2022-11-27T19:08:24.537Z,101347.31
2022-11-27T19:10:53.586Z,101344.90
2022-11-27T19:13:23.707Z,101347.80
2022-11-27T19:15:54.455Z,101349.85
2022-11-27T19:18:25.315Z,101352.77
2022-11-27T19:20:55.453Z,101357.08
2022-11-27T19:23:26.595Z,101360.67
2022-11-27T19:25:56.049Z,101359.11
2022-11-27T19:28:25.583Z,101357.39
2022-11-27T19:30:54.617Z,101354.98
2022-11-27T19:33:26.976Z,101354.96
2022-11-27T19:36:09.590Z,101354.56
2022-11-27T19:38:41.033Z,101345.83
2022-11-27T19:41:12.752Z,101337.22
2022-11-27T19:43:42.588Z,101332.23
2022-11-27T19:46:24.945Z,101327.91
2022-11-27T19:49:02.193Z,101332.89
2022-11-27T19:51:34.960Z,101328.45
2022-11-27T19:54:10.502Z,101326.22
2022-11-27T19:56:41.631Z,101323.98
2022-11-27T19:59:13.395Z,101323.98
2022-11-27T20:01:50.460Z,101323.27
2022-11-27T20:04:22.748Z,101321.53
2022-11-27T20:07:06.095Z,101319.27
2022-11-27T20:09:41.618Z,101314.59
2022-11-27T20:12:13.073Z,101312.33
2022-11-27T20:14:46.710Z,101309.05
2022-11-27T20:17:18.247Z,101305.09
2022-11-27T20:19:46.662Z,101305.94
2022-11-27T20:22:16.570Z,101304.21
2022-11-27T20:25:04.477Z,101301.27
2022-11-27T20:27:41.797Z,101302.26
2022-11-27T20:30:18.199Z,101300.02
2022-11-27T20:32:55.438Z,101297.25
2022-11-27T20:35:32.219Z,101298.94
2022-11-27T20:38:10.398Z,101296.36
2022-11-27T20:40:44.585Z,101294.61
2022-11-27T20:43:20.857Z,101294.09
2022-11-27T20:45:56.554Z,101287.05
2022-11-27T20:48:32.968Z,101287.52
2022-11-27T20:51:14.519Z,101285.08
2022-11-27T20:53:50.542Z,101287.62
2022-11-27T20:56:25.026Z,101289.30
2022-11-27T20:59:00.845Z,101290.11
2022-11-27T21:02:25.760Z,101281.66
2022-11-27T21:05:01.077Z,101280.38
2022-11-27T21:10:48.941Z,101283.18
2022-11-27T21:16:37.882Z,101274.70
2022-11-27T21:19:22.890Z,101273.80
2022-11-27T21:21:58.103Z,101271.70
2022-11-27T21:24:31.420Z,101275.23
2022-11-27T21:27:00.688Z,101278.11
2022-11-27T21:29:36.028Z,101278.92
2022-11-27T21:32:09.675Z,101278.19
2022-11-27T21:34:43.017Z,101276.23
2022-11-27T21:37:18.022Z,101270.21
2022-11-27T21:39:53.626Z,101273.92
2022-11-27T21:42:28.728Z,101270.27
2022-11-27T21:44:57.708Z,101268.66
2022-11-27T21:47:30.890Z,101267.07
2022-11-27T21:49:59.336Z,101263.89
2022-11-27T21:52:32.589Z,101264.35
2022-11-27T21:55:11.856Z,101262.42
2022-11-27T21:57:45.367Z,101263.56
2022-11-27T22:00:20.674Z,101262.45
2022-11-27T22:02:53.547Z,101262.04
2022-11-27T22:05:22.173Z,101257.34
2022-11-27T22:10:46.542Z,101249.33
2022-11-27T22:13:21.437Z,101246.71
2022-11-27T22:15:54.893Z,101243.02
2022-11-27T22:18:29.831Z,101242.23
2022-11-27T22:21:08.962Z,101242.65
2022-11-27T22:23:42.819Z,101235.05
2022-11-27T22:26:16.962Z,101234.80
2022-11-27T22:28:50.069Z,101234.03
2022-11-27T22:31:30.127Z,101233.80
2022-11-27T22:34:05.114Z,101233.63
2022-11-27T22:36:40.196Z,101235.33
2022-11-27T22:39:15.126Z,101235.29
2022-11-27T22:41:48.262Z,101232.19
2022-11-27T22:44:21.334Z,101225.79
2022-11-27T22:46:54.522Z,101230.66
2022-11-27T22:49:29.180Z,101228.86
2022-11-27T22:52:02.461Z,101229.46
2022-11-27T22:54:35.497Z,101228.55
2022-11-27T22:57:10.372Z,101230.52
2022-11-27T22:59:45.247Z,101230.00
2022-11-27T23:02:14.191Z,101231.71
2022-11-27T23:04:42.990Z,101224.38
2022-11-27T23:07:11.807Z,101224.80
2022-11-27T23:09:40.169Z,101225.91
2022-11-27T23:12:08.438Z,101219.98
2022-11-27T23:14:43.136Z,101224.27
2022-11-27T23:17:11.726Z,101223.94
2022-11-27T23:19:44.849Z,101223.08
2022-11-27T23:22:19.627Z,101220.16
2022-11-27T23:24:54.618Z,101222.35
2022-11-27T23:27:29.896Z,101226.58
2022-11-27T23:30:04.907Z,101229.45
2022-11-27T23:32:39.864Z,101227.89
2022-11-27T23:35:14.779Z,101228.20
2022-11-27T23:37:51.625Z,101228.33
2022-11-27T23:40:25.364Z,101231.20
2022-11-27T23:43:00.278Z,101232.89
2022-11-27T23:45:35.044Z,101231.34
2022-11-27T23:48:09.701Z,101229.43
2022-11-27T23:50:43.569Z,101229.75
2022-11-27T23:53:17.890Z,101225.27
2022-11-27T23:55:52.636Z,101220.64
2022-11-27T23:58:26.957Z,101216.35
